Time,TemperatureF,DewpointF,PressureIn,WindDirection,WindDirectionDegrees,WindSpeedMPH,WindSpeedGustMPH,Humidity,HourlyPrecipIn,Conditions,Clouds,dailyrainin,SoftwareType,DateUTC
2013-06-29 00:05:00,63.5,63.2,29.61,SW,230,2.0,5.0,99,0.00,,,0.50,Wunderground v.1.15,2013-06-29 04:05:00,
2013-06-29 00:10:00,63.5,62.9,29.61,WSW,242,3.0,5.0,98,0.00,,,0.50,Wunderground v.1.15,2013-06-29 04:10:00,
2013-06-29 00:15:00,63.4,62.8,29.61,SW,230,3.0,5.0,98,0.00,,,0.50,Wunderground v.1.15,2013-06-29 04:15:00,
2013-06-29 00:20:00,63.4,63.1,29.61,WSW,254,3.0,5.0,99,0.00,,,0.50,Wunderground v.1.15,2013-06-29 04:20:00,
2013-06-29 00:25:00,63.4,62.8,29.61,SSW,199,3.0,3.0,98,0.00,,,0.50,Wunderground v.1.15,2013-06-29 04:25:00,
2013-06-29 00:30:00,63.5,63.2,29.61,WSW,251,2.0,3.0,99,0.00,,,0.00,Wunderground v.1.15,2013-06-29 04:30:00,
2013-06-29 00:35:00,63.4,62.8,29.61,SW,224,1.0,1.0,98,0.00,,,0.00,Wunderground v.1.15,2013-06-29 04:35:00,
2013-06-29 00:40:00,63.4,62.8,29.61,WSW,244,2.0,2.0,98,0.00,,,0.00,Wunderground v.1.15,2013-06-29 04:40:00,
2013-06-29 00:45:00,63.4,62.8,29.61,WSW,242,2.0,3.0,98,0.00,,,0.00,Wunderground v.1.15,2013-06-29 04:45:00,
2013-06-29 00:50:00,63.4,62.8,29.61,WSW,241,2.0,3.0,98,0.00,,,0.00,Wunderground v.1.15,2013-06-29 04:50:00,
2013-06-29 01:00:00,63.3,62.7,29.61,WSW,249,2.0,4.0,98,0.00,,,0.00,Wunderground v.1.15,2013-06-29 05:00:00,
2013-06-29 01:05:00,63.3,62.7,29.61,WSW,251,2.0,4.0,98,0.00,,,0.00,Wunderground v.1.15,2013-06-29 05:05:00,
2013-06-29 01:10:00,63.3,62.7,29.60,WSW,244,1.0,1.0,98,0.00,,,0.00,Wunderground v.1.15,2013-06-29 05:10:00,
2013-06-29 01:20:00,63.3,62.7,29.59,SW,228,1.0,1.0,98,0.00,,,0.00,Wunderground v.1.15,2013-06-29 05:20:00,
2013-06-29 01:25:00,63.3,62.7,29.59,SW,228,0.0,1.0,98,0.00,,,0.01,Wunderground v.1.15,2013-06-29 05:25:00,
2013-06-29 01:30:00,63.3,62.7,29.59,SW,228,0.0,1.0,98,0.00,,,0.01,Wunderground v.1.15,2013-06-29 05:30:00,
2013-06-29 01:35:00,63.3,62.7,29.60,SW,232,1.0,2.0,98,0.00,,,0.01,Wunderground v.1.15,2013-06-29 05:35:00,
2013-06-29 01:40:00,63.4,62.8,29.60,SW,232,1.0,1.0,98,0.00,,,0.01,Wunderground v.1.15,2013-06-29 05:40:00,
2013-06-29 01:45:00,63.4,62.8,29.60,SW,232,1.0,1.0,98,0.00,,,0.01,Wunderground v.1.15,2013-06-29 05:45:00,
2013-06-29 01:50:00,63.4,62.8,29.60,SSW,198,2.0,3.0,98,0.00,,,0.01,Wunderground v.1.15,2013-06-29 05:50:00,
2013-06-29 01:55:00,63.3,62.7,29.59,WSW,257,2.0,3.0,98,0.00,,,0.01,Wunderground v.1.15,2013-06-29 05:55:00,
2013-06-29 02:00:00,63.3,62.7,29.60,WSW,239,2.0,2.0,98,0.00,,,0.01,Wunderground v.1.15,2013-06-29 06:00:00,
2013-06-29 02:05:00,63.2,62.6,29.60,WSW,251,3.0,3.0,98,0.00,,,0.01,Wunderground v.1.15,2013-06-29 06:05:00,
2013-06-29 02:15:00,63.2,62.6,29.60,SW,225,2.0,2.0,98,0.00,,,0.01,Wunderground v.1.15,2013-06-29 06:15:00,
2013-06-29 02:20:00,63.2,62.6,29.60,WSW,239,2.0,2.0,98,0.00,,,0.01,Wunderground v.1.15,2013-06-29 06:20:00,
2013-06-29 02:25:00,63.2,62.6,29.60,SW,218,2.0,3.0,98,0.00,,,0.01,Wunderground v.1.15,2013-06-29 06:25:00,
2013-06-29 02:30:00,63.2,62.6,29.59,WSW,241,1.0,1.0,98,0.00,,,0.01,Wunderground v.1.15,2013-06-29 06:30:00,
2013-06-29 02:40:00,63.2,62.6,29.60,WSW,251,1.0,1.0,98,0.00,,,0.01,Wunderground v.1.15,2013-06-29 06:40:00,
2013-06-29 02:45:00,63.2,62.6,29.59,WSW,251,1.0,1.0,98,0.00,,,0.01,Wunderground v.1.15,2013-06-29 06:45:00,
2013-06-29 02:55:00,63.2,62.6,29.59,WSW,250,0.0,1.0,98,0.00,,,0.01,Wunderground v.1.15,2013-06-29 06:55:00,
2013-06-29 03:00:00,63.1,62.8,29.59,WSW,250,1.0,1.0,99,0.00,,,0.01,Wunderground v.1.15,2013-06-29 07:00:00,
2013-06-29 03:05:00,63.1,62.8,29.59,WSW,247,1.0,1.0,99,0.00,,,0.01,Wunderground v.1.15,2013-06-29 07:05:00,
2013-06-29 03:10:00,63.1,62.8,29.59,WSW,247,1.0,3.0,99,0.00,,,0.01,Wunderground v.1.15,2013-06-29 07:10:00,
2013-06-29 03:15:00,63.1,62.8,29.59,WSW,247,1.0,3.0,99,0.00,,,0.01,Wunderground v.1.15,2013-06-29 07:15:00,
2013-06-29 03:20:00,63.1,62.8,29.60,WSW,247,1.0,1.0,99,0.00,,,0.01,Wunderground v.1.15,2013-06-29 07:20:00,
2013-06-29 03:30:00,63.1,62.8,29.59,WSW,247,0.0,0.0,99,0.00,,,0.01,Wunderground v.1.15,2013-06-29 07:30:00,
2013-06-29 03:35:00,63.1,62.8,29.59,WSW,247,0.0,0.0,99,0.00,,,0.01,Wunderground v.1.15,2013-06-29 07:35:00,
2013-06-29 03:40:00,63.1,62.8,29.59,WSW,247,0.0,0.0,99,0.00,,,0.01,Wunderground v.1.15,2013-06-29 07:40:00,
2013-06-29 03:45:00,63.1,62.8,29.59,WSW,247,0.0,0.0,99,0.00,,,0.01,Wunderground v.1.15,2013-06-29 07:45:00,
2013-06-29 03:50:00,63.1,62.8,29.59,WSW,247,1.0,1.0,99,0.00,,,0.01,Wunderground v.1.15,2013-06-29 07:50:00,
2013-06-29 03:55:00,63.0,62.7,29.59,WSW,247,1.0,1.0,99,0.00,,,0.01,Wunderground v.1.15,2013-06-29 07:55:00,
2013-06-29 04:05:00,63.0,62.7,29.60,WSW,247,1.0,1.0,99,0.00,,,0.01,Wunderground v.1.15,2013-06-29 08:05:00,
2013-06-29 04:15:00,62.9,62.6,29.60,WSW,247,1.0,1.0,99,0.00,,,0.01,Wunderground v.1.15,2013-06-29 08:15:00,
2013-06-29 04:20:00,62.9,62.6,29.60,WSW,247,0.0,0.0,99,0.00,,,0.01,Wunderground v.1.15,2013-06-29 08:20:00,
2013-06-29 04:25:00,62.9,62.6,29.61,WSW,247,0.0,1.0,99,0.00,,,0.01,Wunderground v.1.15,2013-06-29 08:25:00,
2013-06-29 04:30:00,62.8,62.2,29.60,SSW,213,1.0,1.0,98,0.00,,,0.01,Wunderground v.1.15,2013-06-29 08:30:00,
2013-06-29 04:35:00,62.7,62.1,29.60,SSW,213,1.0,1.0,98,0.00,,,0.01,Wunderground v.1.15,2013-06-29 08:35:00,
2013-06-29 04:45:00,62.8,62.2,29.60,SSW,213,0.0,2.0,98,0.00,,,0.01,Wunderground v.1.15,2013-06-29 08:45:00,
2013-06-29 04:50:00,62.8,62.2,29.60,SSW,213,0.0,0.0,98,0.00,,,0.01,Wunderground v.1.15,2013-06-29 08:50:00,
2013-06-29 04:55:00,62.9,62.6,29.60,SSW,213,0.0,0.0,99,0.00,,,0.01,Wunderground v.1.15,2013-06-29 08:55:00,
2013-06-29 05:00:00,62.9,62.6,29.60,SSW,213,0.0,2.0,99,0.00,,,0.01,Wunderground v.1.15,2013-06-29 09:00:00,
2013-06-29 05:05:00,62.9,62.6,29.60,SSW,213,0.0,2.0,99,0.00,,,0.01,Wunderground v.1.15,2013-06-29 09:05:00,
2013-06-29 05:15:00,63.0,62.7,29.60,SSW,213,0.0,0.0,99,0.00,,,0.01,Wunderground v.1.15,2013-06-29 09:15:00,
2013-06-29 05:20:00,62.9,62.6,29.59,SSW,213,0.0,0.0,99,0.00,,,0.01,Wunderground v.1.15,2013-06-29 09:20:00,
2013-06-29 05:30:00,62.8,62.5,29.60,SSW,213,0.0,0.0,99,0.00,,,0.01,Wunderground v.1.15,2013-06-29 09:30:00,
2013-06-29 05:35:00,62.8,62.5,29.60,SSW,213,0.0,0.0,99,0.00,,,0.01,Wunderground v.1.15,2013-06-29 09:35:00,
2013-06-29 05:40:00,62.9,62.6,29.60,SSW,213,0.0,1.0,99,0.00,,,0.01,Wunderground v.1.15,2013-06-29 09:40:00,
2013-06-29 05:45:00,62.9,62.6,29.60,SSW,213,0.0,1.0,99,0.00,,,0.01,Wunderground v.1.15,2013-06-29 09:45:00,
2013-06-29 05:55:00,62.9,62.6,29.60,SSW,213,0.0,0.0,99,0.00,,,0.01,Wunderground v.1.15,2013-06-29 09:55:00,
2013-06-29 06:00:00,63.1,62.8,29.60,SSW,213,0.0,0.0,99,0.00,,,0.01,Wunderground v.1.15,2013-06-29 10:00:00,
2013-06-29 06:05:00,63.2,62.9,29.61,SSW,213,0.0,0.0,99,0.00,,,0.01,Wunderground v.1.15,2013-06-29 10:05:00,
2013-06-29 06:10:00,63.4,63.1,29.61,SSW,213,0.0,0.0,99,0.00,,,0.01,Wunderground v.1.15,2013-06-29 10:10:00,
2013-06-29 06:15:00,63.5,63.2,29.62,SSW,213,0.0,3.0,99,0.00,,,0.01,Wunderground v.1.15,2013-06-29 10:15:00,
2013-06-29 06:20:00,63.6,63.3,29.61,SSW,213,1.0,1.0,99,0.00,,,0.01,Wunderground v.1.15,2013-06-29 10:20:00,
2013-06-29 06:30:00,63.8,63.5,29.61,SSW,213,0.0,0.0,99,0.00,,,0.01,Wunderground v.1.15,2013-06-29 10:30:00,
2013-06-29 06:40:00,63.9,63.6,29.61,SSW,213,0.0,2.0,99,0.00,,,0.01,Wunderground v.1.15,2013-06-29 10:40:00,
2013-06-29 06:45:00,63.9,63.6,29.61,SSW,213,0.0,2.0,99,0.00,,,0.01,Wunderground v.1.15,2013-06-29 10:45:00,
2013-06-29 06:50:00,64.1,63.8,29.61,SSW,213,1.0,1.0,99,0.00,,,0.01,Wunderground v.1.15,2013-06-29 10:50:00,
2013-06-29 06:55:00,64.2,63.9,29.62,SSW,213,0.0,1.0,99,0.00,,,0.01,Wunderground v.1.15,2013-06-29 10:55:00,
2013-06-29 07:00:00,64.3,64.0,29.61,SSW,211,1.0,2.0,99,0.00,,,0.01,Wunderground v.1.15,2013-06-29 11:00:00,
2013-06-29 07:05:00,64.4,64.1,29.62,WSW,238,1.0,2.0,99,0.00,,,0.01,Wunderground v.1.15,2013-06-29 11:05:00,
2013-06-29 07:10:00,64.5,64.2,29.62,WSW,257,2.0,2.0,99,0.00,,,0.01,Wunderground v.1.15,2013-06-29 11:10:00,
2013-06-29 07:15:00,64.6,64.3,29.62,West,269,2.0,3.0,99,0.00,,,0.01,Wunderground v.1.15,2013-06-29 11:15:00,
2013-06-29 07:20:00,64.5,64.2,29.62,WSW,241,3.0,3.0,99,0.00,,,0.02,Wunderground v.1.15,2013-06-29 11:20:00,
2013-06-29 07:25:00,64.3,64.0,29.62,SW,234,3.0,3.0,99,0.00,,,0.02,Wunderground v.1.15,2013-06-29 11:25:00,
2013-06-29 07:30:00,64.3,64.0,29.63,SW,234,2.0,2.0,99,0.04,,,0.03,Wunderground v.1.15,2013-06-29 11:30:00,
2013-06-29 07:35:00,64.3,64.0,29.62,WSW,249,1.0,2.0,99,0.04,,,0.03,Wunderground v.1.15,2013-06-29 11:35:00,
2013-06-29 07:45:00,64.2,63.9,29.63,WSW,249,1.0,2.0,99,0.04,,,0.03,Wunderground v.1.15,2013-06-29 11:45:00,
2013-06-29 07:50:00,64.0,63.7,29.63,WNW,288,1.0,3.0,99,0.00,,,0.03,Wunderground v.1.15,2013-06-29 11:50:00,
2013-06-29 07:55:00,63.9,63.6,29.63,West,264,2.0,3.0,99,0.00,,,0.03,Wunderground v.1.15,2013-06-29 11:55:00,
2013-06-29 08:00:00,63.8,63.5,29.64,WNW,299,2.0,2.0,99,0.00,,,0.03,Wunderground v.1.15,2013-06-29 12:00:00,
2013-06-29 08:10:00,63.4,63.1,29.64,SW,220,2.0,3.0,99,0.00,,,0.03,Wunderground v.1.15,2013-06-29 12:10:00,
2013-06-29 08:15:00,63.4,63.1,29.64,WSW,247,2.0,3.0,99,0.00,,,0.03,Wunderground v.1.15,2013-06-29 12:15:00,
2013-06-29 08:25:00,63.7,63.4,29.63,WSW,246,1.0,2.0,99,0.00,,,0.03,Wunderground v.1.15,2013-06-29 12:25:00,
2013-06-29 08:30:00,63.6,63.3,29.63,NW,304,1.0,1.0,99,0.00,,,0.03,Wunderground v.1.15,2013-06-29 12:30:00,
2013-06-29 08:35:00,63.7,63.4,29.64,SW,232,1.0,3.0,99,0.00,,,0.03,Wunderground v.1.15,2013-06-29 12:35:00,
2013-06-29 08:40:00,63.7,63.4,29.64,WSW,246,2.0,2.0,99,0.00,,,0.03,Wunderground v.1.15,2013-06-29 12:40:00,
2013-06-29 08:45:00,63.8,63.5,29.63,WSW,244,2.0,6.0,99,0.00,,,0.03,Wunderground v.1.15,2013-06-29 12:45:00,
2013-06-29 08:50:00,63.8,63.5,29.63,SW,223,1.0,1.0,99,0.00,,,0.03,Wunderground v.1.15,2013-06-29 12:50:00,
2013-06-29 09:00:00,64.0,63.7,29.63,WSW,249,1.0,1.0,99,0.00,,,0.03,Wunderground v.1.15,2013-06-29 13:00:00,
2013-06-29 09:05:00,64.1,63.8,29.63,WSW,249,1.0,1.0,99,0.00,,,0.03,Wunderground v.1.15,2013-06-29 13:05:00,
2013-06-29 09:10:00,64.3,64.0,29.63,WSW,249,1.0,1.0,99,0.00,,,0.03,Wunderground v.1.15,2013-06-29 13:10:00,
2013-06-29 09:15:00,64.6,64.3,29.63,WSW,249,1.0,1.0,99,0.00,,,0.03,Wunderground v.1.15,2013-06-29 13:15:00,
2013-06-29 09:20:00,64.8,64.5,29.63,WSW,249,0.0,1.0,99,0.00,,,0.03,Wunderground v.1.15,2013-06-29 13:20:00,
2013-06-29 09:25:00,64.9,64.6,29.63,WSW,249,0.0,1.0,99,0.00,,,0.03,Wunderground v.1.15,2013-06-29 13:25:00,
2013-06-29 09:35:00,65.1,64.8,29.62,WSW,249,0.0,0.0,99,0.00,,,0.03,Wunderground v.1.15,2013-06-29 13:35:00,
2013-06-29 09:40:00,65.4,65.1,29.63,WSW,249,0.0,0.0,99,0.00,,,0.03,Wunderground v.1.15,2013-06-29 13:40:00,
2013-06-29 09:50:00,66.2,65.9,29.63,WSW,249,0.0,1.0,99,0.00,,,0.03,Wunderground v.1.15,2013-06-29 13:50:00,
2013-06-29 09:55:00,66.1,65.8,29.64,West,264,1.0,4.0,99,0.00,,,0.03,Wunderground v.1.15,2013-06-29 13:55:00,
2013-06-29 10:00:00,65.9,65.6,29.64,WSW,240,3.0,4.0,99,0.00,,,0.03,Wunderground v.1.15,2013-06-29 14:00:00,
2013-06-29 10:05:00,66.0,65.7,29.64,SSW,204,3.0,4.0,99,0.00,,,0.03,Wunderground v.1.15,2013-06-29 14:05:00,
2013-06-29 10:15:00,66.3,66.0,29.63,WSW,247,1.0,2.0,99,0.00,,,0.03,Wunderground v.1.15,2013-06-29 14:15:00,
2013-06-29 10:20:00,66.2,65.9,29.64,SSW,193,1.0,5.0,99,0.00,,,0.03,Wunderground v.1.15,2013-06-29 14:20:00,
2013-06-29 10:25:00,65.8,65.5,29.64,SW,232,2.0,5.0,99,0.00,,,0.03,Wunderground v.1.15,2013-06-29 14:25:00,
2013-06-29 10:30:00,65.9,65.6,29.64,SSW,212,2.0,4.0,99,0.00,,,0.03,Wunderground v.1.15,2013-06-29 14:30:00,
2013-06-29 10:40:00,65.7,65.4,29.64,WSW,255,2.0,2.0,99,0.00,,,0.03,Wunderground v.1.15,2013-06-29 14:40:00,
2013-06-29 10:45:00,65.8,65.5,29.64,West,261,2.0,4.0,99,0.00,,,0.03,Wunderground v.1.15,2013-06-29 14:45:00,
2013-06-29 10:50:00,65.6,65.3,29.64,SSW,209,1.0,5.0,99,0.00,,,0.03,Wunderground v.1.15,2013-06-29 14:50:00,
2013-06-29 11:00:00,65.8,65.5,29.64,SSW,199,2.0,2.0,99,0.00,,,0.03,Wunderground v.1.15,2013-06-29 15:00:00,
2013-06-29 11:05:00,65.9,65.6,29.64,SW,232,2.0,2.0,99,0.00,,,0.03,Wunderground v.1.15,2013-06-29 15:05:00,
2013-06-29 11:10:00,65.9,65.6,29.63,South,189,2.0,2.0,99,0.00,,,0.03,Wunderground v.1.15,2013-06-29 15:10:00,
2013-06-29 11:15:00,65.9,65.6,29.63,WSW,240,2.0,2.0,99,0.00,,,0.03,Wunderground v.1.15,2013-06-29 15:15:00,
2013-06-29 11:25:00,66.5,66.2,29.63,WSW,240,1.0,1.0,99,0.00,,,0.03,Wunderground v.1.15,2013-06-29 15:25:00,
2013-06-29 11:30:00,66.7,66.4,29.63,WSW,248,1.0,1.0,99,0.00,,,0.03,Wunderground v.1.15,2013-06-29 15:30:00,
2013-06-29 11:35:00,66.8,66.5,29.63,WSW,247,2.0,2.0,99,0.00,,,0.03,Wunderground v.1.15,2013-06-29 15:35:00,
2013-06-29 11:40:00,67.3,67.0,29.63,SSW,197,2.0,5.0,99,0.00,,,0.03,Wunderground v.1.15,2013-06-29 15:40:00,
2013-06-29 11:50:00,67.8,67.5,29.62,WSW,252,2.0,2.0,99,0.00,,,0.03,Wunderground v.1.15,2013-06-29 15:50:00,
2013-06-29 11:55:00,67.6,67.3,29.63,SSW,203,3.0,3.0,99,0.00,,,0.03,Wunderground v.1.15,2013-06-29 15:55:00,
2013-06-29 12:05:00,67.5,66.9,29.63,SW,228,3.0,6.0,98,0.00,,,0.03,Wunderground v.1.15,2013-06-29 16:05:00,
2013-06-29 12:10:00,67.3,66.7,29.63,WSW,255,4.0,6.0,98,0.00,,,0.03,Wunderground v.1.15,2013-06-29 16:10:00,
2013-06-29 12:15:00,67.4,66.8,29.63,SW,226,3.0,6.0,98,0.00,,,0.03,Wunderground v.1.15,2013-06-29 16:15:00,
2013-06-29 12:20:00,67.5,66.9,29.63,SW,218,2.0,2.0,98,0.00,,,0.03,Wunderground v.1.15,2013-06-29 16:20:00,
2013-06-29 12:25:00,67.5,66.9,29.62,SSW,193,1.0,3.0,98,0.00,,,0.03,Wunderground v.1.15,2013-06-29 16:25:00,
2013-06-29 12:30:00,67.4,66.8,29.62,SSW,195,2.0,2.0,98,0.00,,,0.03,Wunderground v.1.15,2013-06-29 16:30:00,
2013-06-29 12:40:00,67.2,66.6,29.62,SSW,207,1.0,1.0,98,0.00,,,0.03,Wunderground v.1.15,2013-06-29 16:40:00,
2013-06-29 12:45:00,67.2,66.3,29.63,SSW,202,1.0,5.0,97,0.00,,,0.03,Wunderground v.1.15,2013-06-29 16:45:00,
2013-06-29 12:50:00,67.1,66.2,29.63,SW,235,1.0,3.0,97,0.00,,,0.03,Wunderground v.1.15,2013-06-29 16:50:00,
2013-06-29 13:00:00,67.0,66.1,29.63,SW,234,2.0,2.0,97,0.00,,,0.03,Wunderground v.1.15,2013-06-29 17:00:00,
2013-06-29 13:05:00,67.0,66.1,29.64,West,274,2.0,2.0,97,0.00,,,0.03,Wunderground v.1.15,2013-06-29 17:05:00,
2013-06-29 13:10:00,67.2,66.3,29.64,West,259,2.0,5.0,97,0.00,,,0.03,Wunderground v.1.15,2013-06-29 17:10:00,
2013-06-29 13:20:00,67.3,66.4,29.64,SW,214,2.0,4.0,97,0.00,,,0.03,Wunderground v.1.15,2013-06-29 17:20:00,
2013-06-29 13:25:00,67.2,66.0,29.64,SSW,207,3.0,6.0,96,0.00,,,0.03,Wunderground v.1.15,2013-06-29 17:25:00,
2013-06-29 13:30:00,67.2,66.0,29.64,SSW,203,3.0,3.0,96,0.00,,,0.03,Wunderground v.1.15,2013-06-29 17:30:00,
2013-06-29 13:35:00,67.2,66.0,29.65,WSW,241,2.0,3.0,96,0.00,,,0.03,Wunderground v.1.15,2013-06-29 17:35:00,
2013-06-29 13:40:00,67.2,66.0,29.64,SW,227,3.0,3.0,96,0.00,,,0.03,Wunderground v.1.15,2013-06-29 17:40:00,
2013-06-29 13:45:00,67.2,66.0,29.64,SW,224,3.0,3.0,96,0.00,,,0.03,Wunderground v.1.15,2013-06-29 17:45:00,
2013-06-29 13:55:00,67.5,66.3,29.64,SW,232,3.0,5.0,96,0.00,,,0.03,Wunderground v.1.15,2013-06-29 17:55:00,
2013-06-29 14:00:00,67.8,66.6,29.64,SSW,208,3.0,4.0,96,0.00,,,0.03,Wunderground v.1.15,2013-06-29 18:00:00,
2013-06-29 14:05:00,67.8,66.6,29.64,SSW,209,3.0,4.0,96,0.00,,,0.03,Wunderground v.1.15,2013-06-29 18:05:00,
2013-06-29 14:15:00,67.7,66.2,29.64,SW,224,3.0,5.0,95,0.00,,,0.03,Wunderground v.1.15,2013-06-29 18:15:00,
2013-06-29 14:20:00,67.4,65.9,29.63,WSW,250,3.0,3.0,95,0.00,,,0.03,Wunderground v.1.15,2013-06-29 18:20:00,
2013-06-29 14:25:00,67.4,65.9,29.63,WSW,255,3.0,3.0,95,0.00,,,0.03,Wunderground v.1.15,2013-06-29 18:25:00,
2013-06-29 14:35:00,67.6,66.1,29.63,WSW,249,3.0,3.0,95,0.00,,,0.03,Wunderground v.1.15,2013-06-29 18:35:00,
2013-06-29 14:40:00,67.7,65.9,29.64,SW,231,3.0,4.0,94,0.00,,,0.03,Wunderground v.1.15,2013-06-29 18:40:00,
2013-06-29 14:45:00,67.9,66.1,29.64,WSW,241,2.0,4.0,94,0.00,,,0.03,Wunderground v.1.15,2013-06-29 18:45:00,
2013-06-29 14:50:00,68.3,66.5,29.64,SW,229,2.0,6.0,94,0.00,,,0.03,Wunderground v.1.15,2013-06-29 18:50:00,
2013-06-29 14:55:00,68.8,66.7,29.64,SE,139,2.0,6.0,93,0.00,,,0.03,Wunderground v.1.15,2013-06-29 18:55:00,
2013-06-29 15:05:00,69.5,67.1,29.63,West,267,3.0,3.0,92,0.00,,,0.03,Wunderground v.1.15,2013-06-29 19:05:00,
2013-06-29 15:10:00,69.9,67.2,29.63,SSW,213,3.0,3.0,91,0.00,,,0.03,Wunderground v.1.15,2013-06-29 19:10:00,
2013-06-29 15:15:00,70.0,67.3,29.63,WSW,251,3.0,3.0,91,0.00,,,0.03,Wunderground v.1.15,2013-06-29 19:15:00,
2013-06-29 15:20:00,70.4,67.6,29.64,WSW,243,3.0,3.0,91,0.00,,,0.03,Wunderground v.1.15,2013-06-29 19:20:00,
2013-06-29 15:25:00,70.7,67.9,29.63,SW,219,3.0,3.0,91,0.00,,,0.03,Wunderground v.1.15,2013-06-29 19:25:00,
2013-06-29 15:30:00,70.7,67.6,29.63,WSW,245,3.0,4.0,90,0.00,,,0.03,Wunderground v.1.15,2013-06-29 19:30:00,
2013-06-29 15:35:00,70.6,67.5,29.63,WSW,253,3.0,4.0,90,0.00,,,0.03,Wunderground v.1.15,2013-06-29 19:35:00,
2013-06-29 15:45:00,69.8,67.1,29.63,West,273,4.0,8.0,91,0.00,,,0.03,Wunderground v.1.15,2013-06-29 19:45:00,
2013-06-29 15:50:00,69.6,66.9,29.63,South,182,4.0,4.0,91,0.00,,,0.03,Wunderground v.1.15,2013-06-29 19:50:00,
2013-06-29 15:55:00,69.5,66.8,29.63,West,260,3.0,4.0,91,0.00,,,0.03,Wunderground v.1.15,2013-06-29 19:55:00,
2013-06-29 16:00:00,69.6,67.2,29.63,South,186,3.0,5.0,92,0.00,,,0.03,Wunderground v.1.15,2013-06-29 20:00:00,
2013-06-29 16:10:00,69.3,66.6,29.64,SSW,211,4.0,4.0,91,0.00,,,0.03,Wunderground v.1.15,2013-06-29 20:10:00,
2013-06-29 16:20:00,69.1,66.7,29.64,South,187,4.0,4.0,92,0.00,,,0.03,Wunderground v.1.15,2013-06-29 20:20:00,
2013-06-29 16:25:00,69.0,66.3,29.64,SSW,198,5.0,10.0,91,0.00,,,0.03,Wunderground v.1.15,2013-06-29 20:25:00,
2013-06-29 16:30:00,68.8,66.4,29.64,SW,216,6.0,7.0,92,0.00,,,0.03,Wunderground v.1.15,2013-06-29 20:30:00,
2013-06-29 16:35:00,68.5,66.1,29.64,SSW,205,5.0,10.0,92,0.00,,,0.03,Wunderground v.1.15,2013-06-29 20:35:00,
2013-06-29 16:40:00,68.6,66.2,29.64,SW,236,5.0,5.0,92,0.00,,,0.03,Wunderground v.1.15,2013-06-29 20:40:00,
2013-06-29 16:45:00,68.9,66.5,29.64,SSW,193,5.0,10.0,92,0.00,,,0.03,Wunderground v.1.15,2013-06-29 20:45:00,
2013-06-29 16:55:00,68.8,66.4,29.64,SW,224,5.0,6.0,92,0.00,,,0.03,Wunderground v.1.15,2013-06-29 20:55:00,
2013-06-29 17:00:00,68.9,66.2,29.64,South,187,4.0,6.0,91,0.00,,,0.03,Wunderground v.1.15,2013-06-29 21:00:00,
2013-06-29 17:05:00,69.1,66.4,29.64,West,259,4.0,6.0,91,0.00,,,0.03,Wunderground v.1.15,2013-06-29 21:05:00,
2013-06-29 17:10:00,69.2,66.5,29.64,WSW,253,4.0,4.0,91,0.00,,,0.03,Wunderground v.1.15,2013-06-29 21:10:00,
2013-06-29 17:15:00,69.1,66.0,29.64,WSW,247,4.0,4.0,90,0.00,,,0.03,Wunderground v.1.15,2013-06-29 21:15:00,
2013-06-29 17:25:00,69.4,66.3,29.64,WSW,247,4.0,4.0,90,0.00,,,0.03,Wunderground v.1.15,2013-06-29 21:25:00,
2013-06-29 17:30:00,69.6,66.2,29.64,West,261,4.0,5.0,89,0.00,,,0.03,Wunderground v.1.15,2013-06-29 21:30:00,
2013-06-29 17:40:00,70.1,66.4,29.64,SSE,164,4.0,4.0,88,0.00,,,0.03,Wunderground v.1.15,2013-06-29 21:40:00,
2013-06-29 17:45:00,70.4,66.7,29.65,West,279,4.0,4.0,88,0.00,,,0.03,Wunderground v.1.15,2013-06-29 21:45:00,
2013-06-29 17:50:00,70.5,66.4,29.65,West,259,3.0,3.0,87,0.00,,,0.03,Wunderground v.1.15,2013-06-29 21:50:00,
2013-06-29 17:55:00,70.2,66.1,29.64,WSW,240,3.0,3.0,87,0.00,,,0.03,Wunderground v.1.15,2013-06-29 21:55:00,
2013-06-29 18:00:00,69.8,65.8,29.65,SSW,202,4.0,5.0,87,0.00,,,0.03,Wunderground v.1.15,2013-06-29 22:00:00,
2013-06-29 18:05:00,69.3,65.3,29.65,WSW,252,4.0,5.0,87,0.00,,,0.03,Wunderground v.1.15,2013-06-29 22:05:00,
2013-06-29 18:10:00,69.0,65.3,29.64,WSW,245,3.0,3.0,88,0.00,,,0.03,Wunderground v.1.15,2013-06-29 22:10:00,
2013-06-29 18:15:00,69.0,65.3,29.64,SW,234,4.0,7.0,88,0.00,,,0.03,Wunderground v.1.15,2013-06-29 22:15:00,
2013-06-29 18:20:00,68.8,65.1,29.64,WSW,240,4.0,7.0,88,0.00,,,0.03,Wunderground v.1.15,2013-06-29 22:20:00,
2013-06-29 18:25:00,68.6,64.9,29.65,SW,230,4.0,7.0,88,0.00,,,0.03,Wunderground v.1.15,2013-06-29 22:25:00,
2013-06-29 18:30:00,68.5,64.8,29.65,SSW,199,4.0,15.0,88,0.00,,,0.03,Wunderground v.1.15,2013-06-29 22:30:00,
2013-06-29 18:40:00,68.0,64.3,29.65,NNW,328,5.0,5.0,88,0.00,,,0.03,Wunderground v.1.15,2013-06-29 22:40:00,
2013-06-29 18:50:00,67.4,64.0,29.65,WNW,302,5.0,5.0,89,0.00,,,0.03,Wunderground v.1.15,2013-06-29 22:50:00,
2013-06-29 18:55:00,67.3,63.9,29.66,West,265,5.0,7.0,89,0.00,,,0.03,Wunderground v.1.15,2013-06-29 22:55:00,
2013-06-29 19:00:00,67.2,63.8,29.66,WSW,247,5.0,6.0,89,0.00,,,0.03,Wunderground v.1.15,2013-06-29 23:00:00,
2013-06-29 19:05:00,67.1,63.7,29.66,SW,218,5.0,7.0,89,0.00,,,0.03,Wunderground v.1.15,2013-06-29 23:05:00,
2013-06-29 19:10:00,67.0,63.6,29.66,SSW,195,5.0,6.0,89,0.00,,,0.03,Wunderground v.1.15,2013-06-29 23:10:00,
2013-06-29 19:15:00,66.9,63.6,29.66,WSW,245,5.0,6.0,89,0.00,,,0.03,Wunderground v.1.15,2013-06-29 23:15:00,
2013-06-29 19:25:00,67.1,63.7,29.66,WSW,250,3.0,4.0,89,0.00,,,0.03,Wunderground v.1.15,2013-06-29 23:25:00,
2013-06-29 19:30:00,67.0,63.6,29.67,WSW,258,4.0,4.0,89,0.00,,,0.03,Wunderground v.1.15,2013-06-29 23:30:00,
2013-06-29 19:35:00,66.8,63.5,29.67,West,260,4.0,4.0,89,0.00,,,0.03,Wunderground v.1.15,2013-06-29 23:35:00,
2013-06-29 19:40:00,66.5,63.2,29.67,WSW,258,4.0,4.0,89,0.00,,,0.03,Wunderground v.1.15,2013-06-29 23:40:00,
2013-06-29 19:45:00,66.4,63.4,29.67,SSW,195,3.0,5.0,90,0.00,,,0.03,Wunderground v.1.15,2013-06-29 23:45:00,
2013-06-29 19:50:00,66.1,63.1,29.67,WSW,245,3.0,7.0,90,0.00,,,0.03,Wunderground v.1.15,2013-06-29 23:50:00,
2013-06-29 20:00:00,65.8,62.8,29.67,South,190,4.0,8.0,90,0.00,,,0.03,Wunderground v.1.15,2013-06-30 00:00:00,
2013-06-29 20:10:00,65.7,63.0,29.67,SSW,197,4.0,7.0,91,0.00,,,0.03,Wunderground v.1.15,2013-06-30 00:10:00,
2013-06-29 20:15:00,65.6,62.9,29.67,West,274,3.0,7.0,91,0.00,,,0.03,Wunderground v.1.15,2013-06-30 00:15:00,
2013-06-29 20:20:00,65.4,62.7,29.67,SW,234,4.0,4.0,91,0.00,,,0.03,Wunderground v.1.15,2013-06-30 00:20:00,
2013-06-29 20:25:00,65.3,62.6,29.67,SSW,208,4.0,4.0,91,0.00,,,0.03,Wunderground v.1.15,2013-06-30 00:25:00,
2013-06-29 20:35:00,65.2,62.5,29.68,SW,216,5.0,5.0,91,0.00,,,0.03,Wunderground v.1.15,2013-06-30 00:35:00,
2013-06-29 20:40:00,65.2,62.5,29.68,WSW,243,5.0,5.0,91,0.00,,,0.03,Wunderground v.1.15,2013-06-30 00:40:00,
2013-06-29 20:45:00,65.2,62.5,29.68,West,268,4.0,5.0,91,0.00,,,0.03,Wunderground v.1.15,2013-06-30 00:45:00,
2013-06-29 20:50:00,65.2,62.5,29.68,WSW,252,3.0,3.0,91,0.00,,,0.03,Wunderground v.1.15,2013-06-30 00:50:00,
2013-06-29 20:55:00,65.1,62.4,29.68,WNW,284,3.0,3.0,91,0.00,,,0.03,Wunderground v.1.15,2013-06-30 00:55:00,
2013-06-29 21:00:00,65.0,62.6,29.69,SW,236,4.0,4.0,92,0.00,,,0.03,Wunderground v.1.15,2013-06-30 01:00:00,
2013-06-29 21:10:00,64.8,62.4,29.69,WNW,298,4.0,4.0,92,0.00,,,0.03,Wunderground v.1.15,2013-06-30 01:10:00,
2013-06-29 21:15:00,64.7,62.6,29.69,West,259,3.0,4.0,93,0.00,,,0.03,Wunderground v.1.15,2013-06-30 01:15:00,
2013-06-29 21:25:00,64.5,62.4,29.69,South,180,3.0,7.0,93,0.00,,,0.03,Wunderground v.1.15,2013-06-30 01:25:00,
2013-06-29 21:30:00,64.4,62.3,29.70,WSW,246,4.0,4.0,93,0.00,,,0.03,Wunderground v.1.15,2013-06-30 01:30:00,
2013-06-29 21:35:00,64.4,62.3,29.69,WSW,254,4.0,4.0,93,0.00,,,0.03,Wunderground v.1.15,2013-06-30 01:35:00,
2013-06-29 21:40:00,64.3,62.5,29.69,WSW,251,4.0,7.0,94,0.00,,,0.03,Wunderground v.1.15,2013-06-30 01:40:00,
2013-06-29 21:50:00,64.2,62.4,29.70,WSW,249,4.0,5.0,94,0.00,,,0.03,Wunderground v.1.15,2013-06-30 01:50:00,
2013-06-29 21:55:00,64.2,62.4,29.70,WSW,252,3.0,5.0,94,0.00,,,0.03,Wunderground v.1.15,2013-06-30 01:55:00,
2013-06-29 22:00:00,64.2,62.4,29.70,SW,227,3.0,3.0,94,0.00,,,0.03,Wunderground v.1.15,2013-06-30 02:00:00,
2013-06-29 22:05:00,64.2,62.4,29.70,WSW,248,4.0,11.0,94,0.00,,,0.03,Wunderground v.1.15,2013-06-30 02:05:00,
2013-06-29 22:10:00,64.2,62.4,29.70,WSW,237,4.0,4.0,94,0.00,,,0.03,Wunderground v.1.15,2013-06-30 02:10:00,
2013-06-29 22:15:00,64.3,62.5,29.70,SW,236,4.0,4.0,94,0.00,,,0.03,Wunderground v.1.15,2013-06-30 02:15:00,
2013-06-29 22:25:00,64.3,62.5,29.71,West,272,4.0,4.0,94,0.00,,,0.03,Wunderground v.1.15,2013-06-30 02:25:00,
2013-06-29 22:30:00,64.2,62.4,29.71,West,261,4.0,4.0,94,0.00,,,0.03,Wunderground v.1.15,2013-06-30 02:30:00,
2013-06-29 22:35:00,64.1,62.3,29.71,SW,233,3.0,4.0,94,0.00,,,0.03,Wunderground v.1.15,2013-06-30 02:35:00,
2013-06-29 22:40:00,64.1,62.3,29.71,WSW,257,3.0,3.0,94,0.00,,,0.03,Wunderground v.1.15,2013-06-30 02:40:00,
2013-06-29 22:45:00,64.1,62.3,29.71,WSW,258,2.0,6.0,94,0.00,,,0.03,Wunderground v.1.15,2013-06-30 02:45:00,
2013-06-29 22:50:00,64.1,62.3,29.71,West,259,2.0,2.0,94,0.00,,,0.03,Wunderground v.1.15,2013-06-30 02:50:00,
2013-06-29 23:00:00,64.1,62.3,29.72,West,270,2.0,2.0,94,0.00,,,0.03,Wunderground v.1.15,2013-06-30 03:00:00,
2013-06-29 23:10:00,64.0,62.2,29.73,NNW,337,1.0,1.0,94,0.00,,,0.03,Wunderground v.1.15,2013-06-30 03:10:00,
2013-06-29 23:15:00,64.0,62.2,29.73,NNW,337,0.0,1.0,94,0.00,,,0.03,Wunderground v.1.15,2013-06-30 03:15:00,
2013-06-29 23:20:00,64.0,62.2,29.73,West,261,0.0,0.0,94,0.00,,,0.03,Wunderground v.1.15,2013-06-30 03:20:00,
2013-06-29 23:25:00,63.8,62.0,29.74,WSW,237,1.0,1.0,94,0.00,,,0.03,Wunderground v.1.15,2013-06-30 03:25:00,
2013-06-29 23:30:00,63.7,62.2,29.73,WSW,256,1.0,1.0,95,0.00,,,0.03,Wunderground v.1.15,2013-06-30 03:30:00,
2013-06-29 23:35:00,63.7,62.2,29.73,WSW,256,0.0,2.0,95,0.00,,,0.03,Wunderground v.1.15,2013-06-30 03:35:00,
2013-06-29 23:40:00,63.6,62.1,29.73,SW,229,1.0,2.0,95,0.00,,,0.03,Wunderground v.1.15,2013-06-30 03:40:00,
2013-06-29 23:45:00,63.5,62.0,29.73,SW,229,1.0,2.0,95,0.00,,,0.03,Wunderground v.1.15,2013-06-30 03:45:00,
2013-06-29 23:50:00,63.5,62.0,29.73,SW,229,1.0,1.0,95,0.00,,,0.03,Wunderground v.1.15,2013-06-30 03:50:00,
2013-06-29 23:55:00,63.5,62.0,29.73,SW,229,0.0,1.0,95,0.00,,,0.03,Wunderground v.1.15,2013-06-30 03:55:00,